createdAt,value
2022-12-16T00:01:19.933Z,3.20
2022-12-16T00:03:51.797Z,3.42
2022-12-16T00:06:21.265Z,3.50
2022-12-16T00:08:49.981Z,2.85
2022-12-16T00:11:20.460Z,3.25
2022-12-16T00:13:49.396Z,2.80
2022-12-16T00:16:20.199Z,3.25
2022-12-16T00:18:49.550Z,2.78
2022-12-16T00:21:20.921Z,3.08
2022-12-16T00:23:49.779Z,2.90
2022-12-16T00:26:18.180Z,2.78
2022-12-16T00:28:46.953Z,3.80
2022-12-16T00:31:16.219Z,2.25
2022-12-16T00:33:45.801Z,2.97
2022-12-16T00:36:14.290Z,2.80
2022-12-16T00:38:43.101Z,3.05
2022-12-16T00:41:11.580Z,2.83
2022-12-16T00:43:40.672Z,2.58
2022-12-16T00:46:09.271Z,3.05
2022-12-16T00:48:39.201Z,2.63
2022-12-16T00:51:07.650Z,2.30
2022-12-16T00:53:36.992Z,2.75
2022-12-16T00:56:08.057Z,2.35
2022-12-16T00:58:37.771Z,2.78
2022-12-16T01:01:08.353Z,2.53
2022-12-16T01:03:37.792Z,2.67
2022-12-16T01:06:15.326Z,2.45
2022-12-16T01:08:51.231Z,2.40
2022-12-16T01:11:20.823Z,2.60
2022-12-16T01:13:52.768Z,2.25
2022-12-16T01:16:23.778Z,2.83
2022-12-16T01:18:53.670Z,2.40
2022-12-16T01:21:23.960Z,2.50
2022-12-16T01:23:53.048Z,2.30
2022-12-16T01:26:23.659Z,2.70
2022-12-16T01:28:52.550Z,2.13
2022-12-16T01:31:21.350Z,2.03
2022-12-16T01:33:51.351Z,2.03
2022-12-16T01:36:20.240Z,1.83
2022-12-16T01:38:49.101Z,1.80
2022-12-16T01:41:17.723Z,1.90
2022-12-16T01:43:46.707Z,1.98
2022-12-16T01:46:15.022Z,1.88
2022-12-16T01:48:59.590Z,1.98
2022-12-16T01:51:41.282Z,1.90
2022-12-16T01:57:24.881Z,2.00
2022-12-16T01:59:55.220Z,2.15
2022-12-16T02:02:24.205Z,1.70
2022-12-16T02:05:11.891Z,1.67
2022-12-16T02:07:40.361Z,1.70
2022-12-16T02:13:59.549Z,1.90
2022-12-16T02:16:52.565Z,1.80
2022-12-16T02:19:35.112Z,1.90
2022-12-16T02:22:35.761Z,1.60
2022-12-16T02:25:40.842Z,1.70
2022-12-16T02:32:25.092Z,2.00
2022-12-16T02:35:26.153Z,1.83
2022-12-16T02:38:23.604Z,1.58
2022-12-16T02:41:18.281Z,1.70
2022-12-16T02:46:59.420Z,1.95
2022-12-16T02:49:28.740Z,1.63
2022-12-16T02:51:58.291Z,1.75
2022-12-16T02:54:28.382Z,1.73
2022-12-16T02:57:06.474Z,1.85
2022-12-16T03:00:08.399Z,1.83
2022-12-16T03:03:02.438Z,1.35
2022-12-16T03:05:48.368Z,1.63
2022-12-16T03:08:46.000Z,1.20
2022-12-16T03:11:15.853Z,2.30
2022-12-16T03:13:50.443Z,1.52
2022-12-16T03:16:22.482Z,1.63
2022-12-16T03:22:00.964Z,1.52
2022-12-16T03:24:29.672Z,1.27
2022-12-16T03:27:46.411Z,2.17
2022-12-16T03:30:18.282Z,1.95
2022-12-16T03:33:08.090Z,2.13
2022-12-16T03:36:20.473Z,1.80
2022-12-16T03:38:50.029Z,1.73
2022-12-16T03:41:18.960Z,2.13
2022-12-16T03:43:48.541Z,1.75
2022-12-16T03:46:17.518Z,1.75
2022-12-16T03:48:55.451Z,1.45
2022-12-16T03:54:28.953Z,1.55
2022-12-16T03:56:57.662Z,1.92
2022-12-16T03:59:26.221Z,1.55
2022-12-16T04:01:55.470Z,1.58
2022-12-16T04:04:24.579Z,1.90
2022-12-16T04:07:13.278Z,2.00
2022-12-16T04:09:41.799Z,1.80
2022-12-16T04:12:29.305Z,1.90
2022-12-16T04:15:16.222Z,1.48
2022-12-16T04:18:03.624Z,1.83
2022-12-16T04:20:52.774Z,2.55
2022-12-16T04:23:44.005Z,1.67
2022-12-16T04:26:27.593Z,1.90
2022-12-16T04:28:56.332Z,2.20
2022-12-16T04:31:25.129Z,2.20
2022-12-16T04:34:12.555Z,2.13
2022-12-16T04:36:59.663Z,1.70
2022-12-16T04:39:47.116Z,2.08
2022-12-16T04:45:58.246Z,2.58
2022-12-16T04:48:45.642Z,2.38
2022-12-16T04:51:32.464Z,2.33
2022-12-16T04:54:19.941Z,2.33
2022-12-16T04:57:06.627Z,2.42
2022-12-16T05:00:01.153Z,2.22
2022-12-16T05:02:48.177Z,2.72
2022-12-16T05:05:37.225Z,2.85
2022-12-16T05:08:24.597Z,2.22
2022-12-16T05:11:11.733Z,2.80
2022-12-16T05:13:58.563Z,3.33
2022-12-16T05:16:45.833Z,3.42
2022-12-16T05:19:32.858Z,3.03
2022-12-16T05:22:21.484Z,3.20
2022-12-16T05:25:08.413Z,3.20
2022-12-16T05:27:55.892Z,3.00
2022-12-16T05:34:06.333Z,3.53
2022-12-16T05:36:53.934Z,3.22
2022-12-16T05:39:41.253Z,3.40
2022-12-16T05:42:28.473Z,3.20
2022-12-16T05:45:15.412Z,3.60
2022-12-16T05:48:03.375Z,3.60
2022-12-16T05:50:50.204Z,3.88
2022-12-16T05:53:37.356Z,3.42
2022-12-16T05:56:24.737Z,3.58
2022-12-16T05:59:12.068Z,3.53
2022-12-16T06:01:58.860Z,4.43
2022-12-16T06:04:46.402Z,3.50
2022-12-16T06:07:33.122Z,4.13
2022-12-16T06:10:20.536Z,4.10
2022-12-16T06:13:07.148Z,3.85
2022-12-16T06:15:54.401Z,3.55
2022-12-16T06:18:41.561Z,3.90
2022-12-16T06:21:28.662Z,3.85
2022-12-16T06:24:15.401Z,3.85
2022-12-16T06:27:03.463Z,4.47
2022-12-16T06:29:50.405Z,4.45
2022-12-16T06:32:37.622Z,3.97
2022-12-16T06:35:25.011Z,4.22
2022-12-16T06:38:12.004Z,4.70
2022-12-16T06:40:58.876Z,4.80
2022-12-16T06:43:46.339Z,4.72
2022-12-16T06:46:33.251Z,4.68
2022-12-16T06:49:21.614Z,4.80
2022-12-16T06:52:08.561Z,4.38
2022-12-16T06:54:56.076Z,4.40
2022-12-16T06:57:43.028Z,5.03
2022-12-16T07:00:31.542Z,5.28
2022-12-16T07:03:18.481Z,5.10
2022-12-16T07:06:06.020Z,5.25
2022-12-16T07:08:53.633Z,5.18
2022-12-16T07:11:41.028Z,5.55
2022-12-16T07:14:28.608Z,5.05
2022-12-16T07:17:17.518Z,5.03
2022-12-16T07:20:05.098Z,5.50
2022-12-16T07:23:00.991Z,5.25
2022-12-16T07:25:51.736Z,5.60
2022-12-16T07:28:39.096Z,5.70
2022-12-16T07:31:26.453Z,5.72
2022-12-16T07:34:15.065Z,5.70
2022-12-16T07:37:02.324Z,5.85
2022-12-16T07:39:54.908Z,6.40
2022-12-16T07:42:42.733Z,6.05
2022-12-16T07:45:30.232Z,6.07
2022-12-16T07:48:17.558Z,5.55
2022-12-16T07:51:04.566Z,6.28
2022-12-16T07:53:51.324Z,5.68
2022-12-16T07:56:38.957Z,6.35
2022-12-16T07:59:25.709Z,6.00
2022-12-16T08:02:14.037Z,6.90
2022-12-16T08:05:01.099Z,6.70
2022-12-16T08:07:48.304Z,7.22
2022-12-16T08:10:35.158Z,7.15
2022-12-16T08:13:32.259Z,6.55
2022-12-16T08:16:19.272Z,7.13
2022-12-16T08:19:10.949Z,7.07
2022-12-16T08:21:58.148Z,7.30
2022-12-16T08:24:51.596Z,7.60
2022-12-16T08:27:41.058Z,6.45
2022-12-16T08:30:29.408Z,6.90
2022-12-16T08:33:19.703Z,6.93
2022-12-16T08:36:18.479Z,6.78
2022-12-16T08:39:05.247Z,7.25
2022-12-16T08:41:52.488Z,6.75
2022-12-16T08:44:39.509Z,7.28
2022-12-16T08:47:26.801Z,7.53
2022-12-16T08:50:13.559Z,7.10
2022-12-16T08:53:02.000Z,6.55
2022-12-16T08:55:48.909Z,7.00
2022-12-16T08:58:37.197Z,6.47
2022-12-16T09:01:24.314Z,7.40
2022-12-16T09:04:11.676Z,8.10
2022-12-16T09:06:58.998Z,6.60
2022-12-16T09:09:46.487Z,6.47
2022-12-16T09:12:33.509Z,7.57
2022-12-16T09:15:20.663Z,6.20
2022-12-16T09:18:15.532Z,6.78
2022-12-16T09:21:04.009Z,7.03
2022-12-16T09:23:51.197Z,6.57
2022-12-16T09:26:38.967Z,7.07
2022-12-16T09:29:25.878Z,6.97
2022-12-16T09:32:13.043Z,6.45
2022-12-16T09:34:59.839Z,7.07
2022-12-16T09:37:46.922Z,6.50
2022-12-16T09:40:35.186Z,6.38
2022-12-16T09:43:45.487Z,6.45
2022-12-16T09:47:25.778Z,6.53
2022-12-16T09:50:14.381Z,5.72
2022-12-16T09:53:07.590Z,6.55
2022-12-16T09:58:54.378Z,6.68
2022-12-16T10:01:42.840Z,6.40
2022-12-16T10:04:30.130Z,6.60
2022-12-16T10:07:18.549Z,6.10
2022-12-16T10:10:39.360Z,6.35
2022-12-16T10:13:56.329Z,5.90
2022-12-16T10:17:10.750Z,7.18
2022-12-16T10:20:15.532Z,6.65
2022-12-16T10:23:14.399Z,6.40
2022-12-16T10:26:27.161Z,5.93
2022-12-16T10:29:45.802Z,5.57
2022-12-16T10:33:00.158Z,5.70
2022-12-16T10:38:59.031Z,5.63
2022-12-16T10:41:55.130Z,5.85
2022-12-16T10:45:03.238Z,5.53
2022-12-16T10:47:50.210Z,5.57
2022-12-16T10:50:37.627Z,6.05
2022-12-16T10:53:35.772Z,5.45
2022-12-16T10:57:02.712Z,5.40
2022-12-16T10:59:57.991Z,5.93
2022-12-16T11:02:47.098Z,5.25
2022-12-16T11:05:52.058Z,5.20
2022-12-16T11:09:00.738Z,5.28
2022-12-16T11:11:49.151Z,5.20
2022-12-16T11:15:27.542Z,4.82
2022-12-16T11:18:22.315Z,5.13
2022-12-16T11:21:36.075Z,4.57
2022-12-16T11:24:29.062Z,5.07
2022-12-16T11:27:22.306Z,5.13
2022-12-16T11:30:33.120Z,4.40
2022-12-16T11:33:40.445Z,5.22
2022-12-16T11:36:40.938Z,4.97
2022-12-16T11:39:34.437Z,5.05
2022-12-16T11:42:21.778Z,4.57
2022-12-16T11:45:14.416Z,5.15
2022-12-16T11:48:20.903Z,5.50
2022-12-16T11:51:11.657Z,4.88
2022-12-16T11:54:06.816Z,4.78
2022-12-16T11:56:57.319Z,5.03
2022-12-16T11:59:50.476Z,5.30
2022-12-16T12:03:01.146Z,4.95
2022-12-16T12:06:16.558Z,4.93
2022-12-16T12:09:07.086Z,5.72
2022-12-16T12:12:05.780Z,5.22
2022-12-16T12:15:01.344Z,4.90
2022-12-16T12:18:09.843Z,5.72
2022-12-16T12:21:12.905Z,5.47
2022-12-16T12:24:41.697Z,5.38
2022-12-16T12:27:37.325Z,5.80
2022-12-16T12:30:35.167Z,5.43
2022-12-16T12:33:34.844Z,5.05
2022-12-16T12:36:25.140Z,4.88
2022-12-16T12:39:47.448Z,4.72
2022-12-16T12:42:34.448Z,5.63
2022-12-16T12:45:47.415Z,4.78
2022-12-16T12:49:00.738Z,5.05
2022-12-16T12:51:51.137Z,4.97
2022-12-16T12:55:07.885Z,5.25
2022-12-16T12:57:57.156Z,5.15
2022-12-16T13:00:44.967Z,5.57
2022-12-16T13:03:50.381Z,4.63
2022-12-16T13:06:37.657Z,4.55
2022-12-16T13:09:52.206Z,4.95
2022-12-16T13:15:57.939Z,5.13
2022-12-16T13:18:49.901Z,5.50
2022-12-16T13:21:56.733Z,5.95
2022-12-16T13:25:00.032Z,6.15
2022-12-16T13:27:48.482Z,5.05
2022-12-16T13:30:37.169Z,4.95
2022-12-16T13:33:44.168Z,4.72
2022-12-16T13:36:32.269Z,5.00
2022-12-16T13:39:42.967Z,5.30
2022-12-16T13:43:01.178Z,5.45
2022-12-16T13:45:57.613Z,5.13
2022-12-16T13:49:05.038Z,5.20
2022-12-16T13:51:58.247Z,5.25
2022-12-16T13:54:50.879Z,5.25
2022-12-16T13:57:40.035Z,5.30
2022-12-16T14:00:37.424Z,5.30
2022-12-16T14:03:31.492Z,5.13
2022-12-16T14:06:19.070Z,5.82
2022-12-16T14:09:07.472Z,5.57
2022-12-16T14:12:30.463Z,4.50
2022-12-16T14:15:26.381Z,5.75
2022-12-16T14:18:23.617Z,5.43
2022-12-16T14:21:14.879Z,5.15
2022-12-16T14:24:12.961Z,5.82
2022-12-16T14:27:01.747Z,5.38
2022-12-16T14:29:50.603Z,5.00
2022-12-16T14:32:46.916Z,5.05
2022-12-16T14:35:39.206Z,4.93
2022-12-16T14:38:47.668Z,4.78
2022-12-16T14:41:43.048Z,5.13
2022-12-16T14:44:42.520Z,5.10
2022-12-16T14:47:38.260Z,5.05
2022-12-16T14:50:52.483Z,5.50
2022-12-16T14:53:41.190Z,5.28
2022-12-16T14:56:33.888Z,5.20
2022-12-16T14:59:38.047Z,5.95
2022-12-16T15:02:52.232Z,5.22
2022-12-16T15:05:39.802Z,5.32
2022-12-16T15:08:30.651Z,5.40
2022-12-16T15:11:17.940Z,5.72
2022-12-16T15:14:06.288Z,5.35
2022-12-16T15:16:54.004Z,6.13
2022-12-16T15:19:41.931Z,6.03
2022-12-16T15:22:37.961Z,5.75
2022-12-16T15:25:25.732Z,5.50
2022-12-16T15:28:14.287Z,5.93
2022-12-16T15:31:04.006Z,5.57
2022-12-16T15:33:54.298Z,5.47
2022-12-16T15:36:50.589Z,5.63
2022-12-16T15:39:43.062Z,5.65
2022-12-16T15:42:56.583Z,5.88
2022-12-16T15:45:49.259Z,5.87
2022-12-16T15:48:44.928Z,6.00
2022-12-16T15:52:08.285Z,6.43
2022-12-16T15:55:10.676Z,5.68
2022-12-16T15:57:58.969Z,5.70
2022-12-16T16:00:50.444Z,6.00
2022-12-16T16:03:46.734Z,6.68
2022-12-16T16:06:45.295Z,6.88
2022-12-16T16:09:47.545Z,6.45
2022-12-16T16:12:37.063Z,6.00
2022-12-16T16:15:25.628Z,7.15
2022-12-16T16:18:14.986Z,7.18
2022-12-16T16:21:02.374Z,7.03
2022-12-16T16:23:49.763Z,7.03
2022-12-16T16:26:37.897Z,6.90
2022-12-16T16:29:25.426Z,7.18
2022-12-16T16:32:12.883Z,6.20
2022-12-16T16:35:01.452Z,7.75
2022-12-16T16:37:48.663Z,8.23
2022-12-16T16:41:12.355Z,6.97
2022-12-16T16:43:59.493Z,8.30
2022-12-16T16:46:57.993Z,7.32
2022-12-16T16:49:53.165Z,8.02
2022-12-16T16:52:41.838Z,8.43
2022-12-16T16:55:39.564Z,8.10
2022-12-16T16:58:33.096Z,6.88
2022-12-16T17:01:20.247Z,7.57
2022-12-16T17:04:07.870Z,8.63
2022-12-16T17:06:56.070Z,9.25
2022-12-16T17:09:43.724Z,8.00
2022-12-16T17:12:41.368Z,8.85
2022-12-16T17:15:38.240Z,9.02
2022-12-16T17:18:25.900Z,7.68
2022-12-16T17:21:13.820Z,9.07
2022-12-16T17:24:00.893Z,8.70
2022-12-16T17:26:47.978Z,9.15
2022-12-16T17:29:42.363Z,8.63
2022-12-16T17:32:30.125Z,8.15
2022-12-16T17:35:17.123Z,8.52
2022-12-16T17:38:04.328Z,9.30
2022-12-16T17:40:51.230Z,11.00
2022-12-16T17:43:39.087Z,11.50
2022-12-16T17:46:29.180Z,9.80
2022-12-16T17:49:18.232Z,11.27
2022-12-16T17:52:05.467Z,11.63
2022-12-16T17:54:53.693Z,13.55
2022-12-16T17:57:41.086Z,13.85
2022-12-16T18:00:29.018Z,14.57
2022-12-16T18:03:16.374Z,13.80
2022-12-16T18:06:04.743Z,14.48
2022-12-16T18:08:52.005Z,15.20
2022-12-16T18:11:39.564Z,15.00
2022-12-16T18:14:27.064Z,14.23
2022-12-16T18:17:16.164Z,14.10
2022-12-16T18:20:03.624Z,12.82
2022-12-16T18:22:51.929Z,13.18
2022-12-16T18:25:39.214Z,14.02
2022-12-16T18:28:27.783Z,13.75
2022-12-16T18:31:18.153Z,12.82
2022-12-16T18:34:05.866Z,12.93
2022-12-16T18:36:53.090Z,13.00
2022-12-16T18:39:40.633Z,13.25
2022-12-16T18:42:29.843Z,13.40
2022-12-16T18:45:17.385Z,13.60
2022-12-16T18:48:04.773Z,12.70
2022-12-16T18:50:53.052Z,14.18
2022-12-16T18:53:43.586Z,14.60
2022-12-16T18:56:32.039Z,13.60
2022-12-16T18:59:19.362Z,15.18
2022-12-16T19:02:07.012Z,13.02
2022-12-16T19:04:54.386Z,14.55
2022-12-16T19:07:41.808Z,15.40
2022-12-16T19:10:29.075Z,14.75
2022-12-16T19:13:16.953Z,13.55
2022-12-16T19:16:16.749Z,13.88
2022-12-16T19:19:04.712Z,13.13
2022-12-16T19:21:56.512Z,12.73
2022-12-16T19:24:45.647Z,13.57
2022-12-16T19:27:32.988Z,13.77
2022-12-16T19:30:20.802Z,12.38
2022-12-16T19:33:09.217Z,12.95
2022-12-16T19:35:57.164Z,13.32
2022-12-16T19:38:44.380Z,12.80
2022-12-16T19:41:35.883Z,12.48
2022-12-16T19:44:23.755Z,12.38
2022-12-16T19:47:11.101Z,13.00
2022-12-16T19:49:58.566Z,12.52
2022-12-16T19:52:48.074Z,11.73
2022-12-16T19:55:35.336Z,13.40
2022-12-16T19:58:22.955Z,11.98
2022-12-16T20:01:10.361Z,13.95
2022-12-16T20:03:57.928Z,13.68
2022-12-16T20:06:45.264Z,13.32
2022-12-16T20:09:33.399Z,11.93
2022-12-16T20:12:20.752Z,12.20
2022-12-16T20:15:08.388Z,11.85
2022-12-16T20:17:58.472Z,12.40
2022-12-16T20:20:46.143Z,12.30
2022-12-16T20:23:33.133Z,12.95
2022-12-16T20:26:20.982Z,12.60
2022-12-16T20:29:08.105Z,12.55
2022-12-16T20:31:55.937Z,13.00
2022-12-16T20:34:44.780Z,13.20
2022-12-16T20:37:32.204Z,13.13
2022-12-16T20:40:19.219Z,13.10
2022-12-16T20:43:06.573Z,13.32
2022-12-16T20:45:56.434Z,11.80
2022-12-16T20:48:44.417Z,13.70
2022-12-16T20:51:31.497Z,13.30
2022-12-16T20:54:18.897Z,13.82
2022-12-16T20:57:12.396Z,13.15
2022-12-16T21:00:17.954Z,12.65
2022-12-16T21:03:06.022Z,12.13
2022-12-16T21:05:56.028Z,12.43
2022-12-16T21:08:43.300Z,12.02
2022-12-16T21:11:31.211Z,12.73
2022-12-16T21:14:20.270Z,11.90
2022-12-16T21:17:08.317Z,12.55
2022-12-16T21:19:56.141Z,13.00
2022-12-16T21:22:43.647Z,12.73
2022-12-16T21:25:30.988Z,11.07
2022-12-16T21:28:18.837Z,11.85
2022-12-16T21:31:05.893Z,11.32
2022-12-16T21:33:53.357Z,11.35
2022-12-16T21:36:43.072Z,11.52
2022-12-16T21:39:30.690Z,10.27
2022-12-16T21:42:17.883Z,10.82
2022-12-16T21:45:05.477Z,10.77
2022-12-16T21:47:55.919Z,10.95
2022-12-16T21:50:43.901Z,10.88
2022-12-16T21:53:31.189Z,9.13
2022-12-16T21:56:18.721Z,10.13
2022-12-16T21:59:06.005Z,10.73
2022-12-16T22:01:53.803Z,9.90
2022-12-16T22:04:44.182Z,10.35
2022-12-16T22:07:31.607Z,8.95
2022-12-16T22:10:18.867Z,9.45
2022-12-16T22:13:06.727Z,9.85
2022-12-16T22:15:58.115Z,9.38
2022-12-16T22:18:48.648Z,8.70
2022-12-16T22:21:35.699Z,8.38
2022-12-16T22:24:23.154Z,8.85
2022-12-16T22:27:10.488Z,8.65
2022-12-16T22:29:58.529Z,7.82
2022-12-16T22:32:46.371Z,9.38
2022-12-16T22:35:34.553Z,8.85
2022-12-16T22:38:21.919Z,9.25
2022-12-16T22:41:16.210Z,9.50
2022-12-16T22:44:04.476Z,9.32
2022-12-16T22:46:56.082Z,8.80
2022-12-16T22:49:43.364Z,9.45
2022-12-16T22:52:32.120Z,9.20
2022-12-16T22:55:18.940Z,10.13
2022-12-16T22:58:06.356Z,9.93
2022-12-16T23:00:53.439Z,9.15
2022-12-16T23:03:44.327Z,10.70
2022-12-16T23:06:31.891Z,10.63
2022-12-16T23:09:19.320Z,10.77
2022-12-16T23:12:06.479Z,11.45
2022-12-16T23:14:56.662Z,11.32
2022-12-16T23:17:44.107Z,11.65
2022-12-16T23:20:31.912Z,11.90
2022-12-16T23:23:19.646Z,11.65
2022-12-16T23:26:19.767Z,11.40
2022-12-16T23:29:15.647Z,11.40
2022-12-16T23:32:03.257Z,11.90
2022-12-16T23:34:50.588Z,11.70
2022-12-16T23:37:37.974Z,11.88
2022-12-16T23:40:25.559Z,12.45
2022-12-16T23:43:13.766Z,12.38
2022-12-16T23:46:02.873Z,12.25
2022-12-16T23:48:50.125Z,11.85
2022-12-16T23:51:37.382Z,12.70
2022-12-16T23:54:25.948Z,11.90
2022-12-16T23:57:13.198Z,12.15
